This is the latest recevied weather packets stored in our database for station/object KB1FFS. If no packets are shown the sender has not sent any weather packets the latest 1 day(s).
| Time | Temp. | Humidity | Pressure | Rain* | Wind** | Luminosity | Snow |
|---|---|---|---|---|---|---|---|
| 1836274772 | 27.78° C | 61% | 1016.5 hPa | 0 mm | 0.45 m/s, 121° | 0 W/m² | - |
| 1836274470 | 27.78° C | 61% | 1016.9 hPa | 0 mm | 0 m/s | 0 W/m² | - |
| 1836274324 | 27.78° C | 61% | 1017 hPa | 0 mm | 0 m/s | 0 W/m² | - |
| 1836274168 | 27.78° C | 61% | 1016.7 hPa | 0 mm | 0 m/s | 0 W/m² | - |
| 1778040056 | 17.78° C | 72% | 1011.1 hPa | 0 mm | 1.34 m/s, 147° | 0 W/m² | - |
| 1778039753 | 18.33° C | 72% | 1010.9 hPa | 0 mm | 0.45 m/s, 82° | 0 W/m² | - |
| 1778039450 | 18.33° C | 72% | 1010.8 hPa | 0 mm | 0.89 m/s, 188° | 0 W/m² | - |
| 1778039147 | 18.33° C | 72% | 1010.7 hPa | 0 mm | 0.89 m/s, 180° | 0 W/m² | - |
| 1778038844 | 18.33° C | 72% | 1010.6 hPa | 0 mm | 0.89 m/s, 115° | 0 W/m² | - |
| 1778038541 | 18.33° C | 72% | 1010.2 hPa | 0 mm | 1.79 m/s, 154° | 0 W/m² | - |
| 1778038238 | 18.33° C | 72% | 1010.3 hPa | 0 mm | 0.89 m/s, 131° | 0 W/m² | - |
| 1778037936 | 18.89° C | 71% | 1010.1 hPa | 0 mm | 0.89 m/s, 151° | 0 W/m² | - |
| 1778037632 | 18.89° C | 70% | 1010.1 hPa | 0 mm | 0.89 m/s, 130° | 0 W/m² | - |
| 1778037330 | 18.89° C | 70% | 1010.2 hPa | 0 mm | 0.45 m/s, 111° | 0 W/m² | - |
| 1778037027 | 19.44° C | 70% | 1010 hPa | 0 mm | 1.79 m/s, 141° | 0 W/m² | - |
| 1778036725 | 19.44° C | 70% | 1009.9 hPa | 0 mm | 0 m/s | 0 W/m² | - |
| 1778036422 | 19.44° C | 69% | 1009.9 hPa | 0 mm | 1.34 m/s, 140° | 0 W/m² | - |
| 1778036119 | 20° C | 69% | 1009.7 hPa | 0 mm | 1.79 m/s, 145° | 0 W/m² | - |
| 1778035815 | 20° C | 70% | 1009.7 hPa | 0 mm | 0.45 m/s, 158° | 0 W/m² | - |
| 1778035512 | 20° C | 69% | 1009.5 hPa | 0 mm | 1.34 m/s, 148° | 0 W/m² | - |
| 1778035208 | 20.56° C | 69% | 1009.3 hPa | 0 mm | 0.45 m/s, 116° | 0 W/m² | - |
| 1778034904 | 20.56° C | 69% | 1009.6 hPa | 0 mm | 0.45 m/s, 71° | 0 W/m² | - |
| 1778034602 | 20.56° C | 68% | 1009.1 hPa | 0 mm | 0.89 m/s, 118° | 0 W/m² | - |
| 1778034299 | 20.56° C | 68% | 1009.2 hPa | 0 mm | 0.89 m/s, 154° | 0 W/m² | - |
| 1778033997 | 20.56° C | 68% | 1009.3 hPa | 0 mm | 0.45 m/s, 75° | 0 W/m² | - |
* Rain latest hour (hover to see other rain measurements)
** Current wind speed in m/s (hover to see current wind gust speed)